Terminal Aerodrome Forecast
Issued by NWS

Home | Current Version | Previous Version | Text Only | Print | Product List | Glossary On
Versions: 1 2 3 4 5 6 7 8 9 10 11 12 13
000
FTUS44 KLZK 191100
TAFLLQ
TAF
KLLQ 191129Z 1912/2012 00000KT 5SM BR SKC
     FM191400 06005KT P6SM SCT250
     FM191800 08006KT P6SM SCT050
     FM200000 00000KT P6SM SCT250=

USA.gov is the U.S. government's official web portal to all federal, state and local government web resources and services.